Time;durP1;ratioP1;P1;durP2;ratioP2;P2;SDS_P1;SDS_P2;PMS_P1;PMS_P2;Temp;Humidity;BMP_temperature;BMP_pressure;BME280_temperature;BME280_humidity;BME280_pressure;Samples;Min_cycle;Max_cycle;Signal;HPM_P1;HPM_P2
2024/01/22 00:02:04;;;;;;;110.95;50.83;;;;;;;-1.48;100.00;102157.91;5134746;27;20108;-45
2024/01/22 00:04:34;;;;;;;113.93;52.42;;;;;;;-1.79;100.00;102149.47;5134985;27;20050;-46
2024/01/22 00:07:03;;;;;;;123.13;54.83;;;;;;;-2.04;100.00;102149.78;5134946;27;20174;-46
2024/01/22 00:09:34;;;;;;;125.13;53.95;;;;;;;-1.91;100.00;102137.88;5134664;27;20047;-46
2024/01/22 00:12:03;;;;;;;105.95;50.28;;;;;;;-1.87;100.00;102135.34;5134538;27;20101;-46
2024/01/22 00:14:32;;;;;;;103.20;49.38;;;;;;;-1.99;100.00;102135.09;5134913;27;20043;-46
2024/01/22 00:17:00;;;;;;;101.25;49.75;;;;;;;-1.98;100.00;102136.84;5134891;27;20050;-49
2024/01/22 00:19:30;;;;;;;104.13;48.83;;;;;;;-1.87;100.00;102142.31;5134736;27;20051;-46
2024/01/22 00:21:59;;;;;;;101.72;48.20;;;;;;;-1.72;100.00;102126.94;5134342;27;20043;-44
2024/01/22 00:24:27;;;;;;;103.38;49.08;;;;;;;-1.68;100.00;102133.09;5133286;27;20043;-47
2024/01/22 00:26:56;;;;;;;101.95;48.65;;;;;;;-1.71;100.00;102146.13;5134552;27;20055;-45
2024/01/22 00:29:27;;;;;;;90.28;46.10;;;;;;;-1.77;100.00;102139.91;5133586;27;20047;-46
2024/01/22 00:31:55;;;;;;;96.30;46.33;;;;;;;-1.83;100.00;102142.41;5134435;27;20049;-46
2024/01/22 00:34:24;;;;;;;96.50;47.05;;;;;;;-1.80;100.00;102136.34;5134503;27;20100;-46
2024/01/22 00:36:55;;;;;;;96.93;47.55;;;;;;;-1.70;100.00;102134.81;5134208;27;20134;-46
2024/01/22 00:39:23;;;;;;;94.35;45.70;;;;;;;-1.61;100.00;102119.28;5134589;27;20260;-45
2024/01/22 00:41:52;;;;;;;98.50;47.85;;;;;;;-1.94;100.00;102115.13;5134279;27;20043;-48
2024/01/22 00:44:20;;;;;;;96.65;46.75;;;;;;;-2.15;100.00;102126.03;5134405;27;20057;-45
2024/01/22 00:46:49;;;;;;;103.07;49.20;;;;;;;-2.00;100.00;102117.63;5134258;27;20039;-45
2024/01/22 00:49:17;;;;;;;94.25;46.20;;;;;;;-1.90;100.00;102118.72;5134959;27;20538;-46
2024/01/22 00:51:46;;;;;;;107.43;48.50;;;;;;;-1.87;100.00;102119.66;5133395;27;20047;-44
2024/01/22 00:54:16;;;;;;;99.15;45.80;;;;;;;-1.77;100.00;102111.13;5134422;27;20047;-45
2024/01/22 00:56:45;;;;;;;99.85;47.78;;;;;;;-1.64;100.00;102103.50;5134131;27;20460;-44
2024/01/22 00:59:13;;;;;;;92.05;46.35;;;;;;;-1.78;100.00;102101.53;5134809;27;20121;-47
2024/01/22 01:01:44;;;;;;;94.22;46.10;;;;;;;-1.71;100.00;102101.66;5134235;27;20051;-44
2024/01/22 01:04:13;;;;;;;94.00;44.88;;;;;;;-1.77;100.00;102103.28;5134265;27;20047;-47
2024/01/22 01:06:42;;;;;;;88.45;45.58;;;;;;;-1.92;100.00;102103.00;5134797;27;20039;-46
2024/01/22 01:09:10;;;;;;;86.85;45.13;;;;;;;-1.88;100.00;102099.56;5139527;27;20616;-47
2024/01/22 01:11:40;;;;;;;91.10;45.10;;;;;;;-1.95;100.00;102104.63;5140965;27;20043;-46
2024/01/22 01:14:09;;;;;;;91.07;44.80;;;;;;;-1.91;100.00;102104.75;5139205;27;20039;-46
2024/01/22 01:16:37;;;;;;;91.75;46.15;;;;;;;-1.90;100.00;102096.06;5141401;27;20046;-45
2024/01/22 01:19:09;;;;;;;90.05;44.10;;;;;;;-1.85;100.00;102086.53;5137013;27;20469;-46
2024/01/22 01:21:39;;;;;;;93.00;45.42;;;;;;;-1.81;100.00;102096.25;5134267;27;20208;-44
2024/01/22 01:24:08;;;;;;;91.97;43.85;;;;;;;-1.75;100.00;102101.56;5134190;27;20192;-46
2024/01/22 01:26:45;;;;;;;92.88;43.78;;;;;;;-1.72;100.00;102100.78;5134428;27;20073;-45
2024/01/22 01:29:13;;;;;;;86.88;42.25;;;;;;;-1.69;100.00;102089.47;5134571;27;20578;-46
2024/01/22 01:31:42;;;;;;;95.85;45.08;;;;;;;-1.71;100.00;102083.34;5136454;27;20492;-44
2024/01/22 01:34:10;;;;;;;88.88;42.78;;;;;;;-1.74;100.00;102082.44;5137566;27;20103;-47
2024/01/22 01:36:39;;;;;;;92.47;43.25;;;;;;;-1.71;100.00;102083.34;5134151;27;20483;-49
2024/01/22 01:39:07;;;;;;;88.57;41.45;;;;;;;-1.77;100.00;102081.47;5134196;27;20135;-45
2024/01/22 01:41:39;;;;;;;85.20;42.00;;;;;;;-1.80;100.00;102087.53;5133269;27;20043;-49
2024/01/22 01:44:09;;;;;;;87.20;43.60;;;;;;;-1.83;100.00;102082.25;5133715;27;20054;-45
2024/01/22 01:46:37;;;;;;;87.60;40.72;;;;;;;-1.93;100.00;102088.16;5133809;27;20043;-46
2024/01/22 01:49:07;;;;;;;83.45;39.65;;;;;;;-1.94;100.00;102088.97;5134542;27;20078;-45
2024/01/22 01:51:42;;;;;;;80.05;40.17;;;;;;;-1.94;100.00;102078.50;5136201;27;20120;-45
2024/01/22 01:54:11;;;;;;;79.00;39.42;;;;;;;-1.86;100.00;102076.94;5134433;27;20155;-46
2024/01/22 01:56:42;;;;;;;80.90;39.65;;;;;;;-1.81;100.00;102084.88;5133514;27;20385;-46
2024/01/22 01:59:15;;;;;;;82.60;40.20;;;;;;;-1.87;100.00;102072.56;5133492;27;20440;-46
2024/01/22 02:01:46;;;;;;;74.07;36.97;;;;;;;-1.93;100.00;102076.78;5132798;27;20051;-47
2024/01/22 02:04:18;;;;;;;75.75;37.65;;;;;;;-1.95;100.00;102075.88;5133105;27;20051;-46
2024/01/22 02:06:46;;;;;;;74.70;38.20;;;;;;;-1.96;100.00;102079.34;5131406;27;20095;-46
2024/01/22 02:09:15;;;;;;;75.68;38.13;;;;;;;-1.94;100.00;102077.63;5132976;27;20435;-44
2024/01/22 02:11:43;;;;;;;81.00;40.13;;;;;;;-1.96;100.00;102080.22;5131604;28;20044;-45
2024/01/22 02:14:16;;;;;;;83.35;39.60;;;;;;;-1.96;100.00;102089.81;5133023;27;20039;-46
2024/01/22 02:16:44;;;;;;;86.65;42.10;;;;;;;-2.24;100.00;102088.34;5133194;27;20065;-45
2024/01/22 02:19:15;;;;;;;85.53;43.13;;;;;;;-2.53;100.00;102088.59;5132781;27;20047;-46
2024/01/22 02:21:44;;;;;;;94.25;44.10;;;;;;;-2.53;100.00;102096.44;5132816;27;20058;-46
2024/01/22 02:24:14;;;;;;;83.53;41.88;;;;;;;-2.57;100.00;102089.38;5132477;27;20161;-46
2024/01/22 02:26:42;;;;;;;86.28;43.40;;;;;;;-2.44;100.00;102085.31;5132500;27;20079;-48
2024/01/22 02:29:12;;;;;;;91.18;42.53;;;;;;;-2.66;100.00;102079.59;5132560;27;20051;-45
2024/01/22 02:31:40;;;;;;;86.38;41.10;;;;;;;-2.65;100.00;102075.25;5132136;28;20051;-45
2024/01/22 02:34:11;;;;;;;88.40;42.17;;;;;;;-2.60;100.00;102073.66;5133042;27;20408;-46
2024/01/22 02:36:40;;;;;;;81.90;40.95;;;;;;;-2.52;100.00;102082.50;5132596;28;20050;-45
2024/01/22 02:39:08;;;;;;;83.15;42.55;;;;;;;-2.55;100.00;102077.22;5132459;27;20535;-46
2024/01/22 02:41:38;;;;;;;81.47;41.47;;;;;;;-2.71;100.00;102062.94;5132653;28;20063;-46
2024/01/22 02:44:06;;;;;;;90.78;42.75;;;;;;;-2.58;100.00;102053.66;5132226;27;20055;-47
2024/01/22 02:46:36;;;;;;;89.28;41.58;;;;;;;-2.49;100.00;102056.47;5132359;28;20050;-45
2024/01/22 02:49:08;;;;;;;90.65;42.63;;;;;;;-2.59;100.00;102049.28;5132390;28;20054;-46
2024/01/22 02:51:37;;;;;;;93.68;44.80;;;;;;;-2.47;100.00;102048.66;5132961;27;20048;-46
2024/01/22 02:54:06;;;;;;;90.82;44.58;;;;;;;-2.54;100.00;102047.63;5136597;27;20071;-46
2024/01/22 02:56:34;;;;;;;84.55;42.50;;;;;;;-2.61;100.00;102048.34;5136745;27;20134;-45
2024/01/22 02:59:04;;;;;;;82.80;41.42;;;;;;;-2.66;100.00;102039.53;5136555;27;20122;-47
2024/01/22 03:01:32;;;;;;;83.13;41.90;;;;;;;-2.61;100.00;102040.50;5136510;27;20135;-47
2024/01/22 03:04:00;;;;;;;88.18;40.75;;;;;;;-2.72;100.00;102042.88;5136496;27;20043;-46
2024/01/22 03:06:37;;;;;;;86.55;42.13;;;;;;;-2.76;100.00;102040.19;5136326;27;20058;-45
2024/01/22 03:09:05;;;;;;;82.57;40.88;;;;;;;-2.79;100.00;102045.34;5136863;27;20499;-45
2024/01/22 03:11:34;;;;;;;83.32;41.05;;;;;;;-2.77;100.00;102033.19;5137464;27;20544;-45
2024/01/22 03:14:03;;;;;;;91.85;43.80;;;;;;;-2.68;100.00;102028.19;5137596;27;20067;-49
2024/01/22 03:16:32;;;;;;;89.45;41.83;;;;;;;-2.63;100.00;102021.31;5136866;27;20082;-46
2024/01/22 03:19:00;;;;;;;86.00;41.13;;;;;;;-2.57;100.00;102021.44;5136670;27;20047;-46
2024/01/22 03:21:28;;;;;;;80.78;40.83;;;;;;;-2.49;100.00;102012.06;5136436;27;20051;-46
2024/01/22 03:23:57;;;;;;;90.90;41.70;;;;;;;-2.50;100.00;102014.63;5136330;27;20050;-45
2024/01/22 03:26:26;;;;;;;84.32;39.85;;;;;;;-2.48;100.00;102016.44;5136686;27;20043;-45
2024/01/22 03:28:57;;;;;;;84.00;39.38;;;;;;;-2.59;100.00;102012.72;5135745;27;20066;-46
2024/01/22 03:31:29;;;;;;;78.55;39.13;;;;;;;-2.90;100.00;102017.22;5136236;27;20043;-45
2024/01/22 03:33:57;;;;;;;86.50;40.22;;;;;;;-3.01;100.00;102018.72;5136061;27;20051;-45
2024/01/22 03:36:29;;;;;;;73.38;38.53;;;;;;;-3.11;100.00;102021.06;5136300;27;20122;-46
2024/01/22 03:38:57;;;;;;;76.13;38.78;;;;;;;-3.13;100.00;102018.44;5136787;27;20065;-46
2024/01/22 03:41:29;;;;;;;79.28;37.63;;;;;;;-2.94;100.00;102024.97;5136100;27;20382;-46
2024/01/22 03:43:57;;;;;;;85.13;38.42;;;;;;;-2.76;100.00;102029.72;5139646;27;20502;-51
2024/01/22 03:46:40;;;;;;;77.57;39.38;;;;;;;-3.02;100.00;102026.50;5136643;27;20047;-45
2024/01/22 03:49:09;;;;;;;81.13;39.65;;;;;;;-2.85;100.00;102029.53;5134751;27;20448;-46
2024/01/22 03:51:38;;;;;;;77.53;39.03;;;;;;;-2.77;100.00;102022.75;5135955;27;20111;-44
2024/01/22 03:54:08;;;;;;;84.03;39.85;;;;;;;-2.66;100.00;102029.09;5135968;27;20050;-48
2024/01/22 03:56:37;;;;;;;80.55;40.05;;;;;;;-2.61;100.00;102030.06;5136270;27;20062;-46
2024/01/22 03:59:06;;;;;;;83.47;38.22;;;;;;;-2.56;100.00;102032.78;5135677;27;20416;-45
2024/01/22 04:01:34;;;;;;;79.07;37.97;;;;;;;-2.79;100.00;102024.44;5135735;27;20065;-49
2024/01/22 04:04:06;;;;;;;83.53;40.00;;;;;;;-2.75;100.00;102031.50;5134559;27;20050;-45
2024/01/22 04:06:35;;;;;;;82.18;40.28;;;;;;;-2.63;100.00;102016.09;5135556;27;20773;-44
2024/01/22 04:09:04;;;;;;;83.05;39.38;;;;;;;-2.75;100.00;102023.66;5135093;27;20130;-46
2024/01/22 04:11:32;;;;;;;82.72;41.83;;;;;;;-2.70;100.00;102019.41;5134557;27;20138;-43
2024/01/22 04:14:01;;;;;;;90.82;44.40;;;;;;;-2.68;100.00;102017.72;5134598;27;20083;-45
2024/01/22 04:16:33;;;;;;;90.30;42.78;;;;;;;-2.66;100.00;102010.81;5135184;27;20066;-44
2024/01/22 04:19:02;;;;;;;86.38;42.42;;;;;;;-2.56;100.00;101997.09;5135040;27;20051;-46
2024/01/22 04:21:32;;;;;;;91.25;43.65;;;;;;;-2.61;100.00;101997.00;5134617;27;20074;-44
2024/01/22 04:24:00;;;;;;;97.57;44.53;;;;;;;-2.65;100.00;101999.50;5134966;27;20139;-45
2024/01/22 04:26:29;;;;;;;91.25;44.22;;;;;;;-2.68;100.00;102004.66;5134682;27;20054;-44
2024/01/22 04:29:00;;;;;;;93.20;45.17;;;;;;;-2.72;100.00;102001.09;5134520;27;20053;-44
2024/01/22 04:31:28;;;;;;;94.47;44.13;;;;;;;-2.98;100.00;101997.91;5134847;27;20047;-45
2024/01/22 04:33:57;;;;;;;99.78;45.97;;;;;;;-3.19;100.00;102003.50;5134438;27;20092;-45
2024/01/22 04:36:26;;;;;;;95.07;47.22;;;;;;;-3.28;100.00;102012.81;5134375;27;20047;-45
2024/01/22 04:38:56;;;;;;;97.68;47.30;;;;;;;-3.36;100.00;102001.34;5134049;27;20043;-43
2024/01/22 04:41:28;;;;;;;97.53;46.05;;;;;;;-3.37;100.00;102012.63;5134167;27;20425;-45
2024/01/22 04:43:56;;;;;;;96.95;48.35;;;;;;;-3.40;100.00;102008.19;5133805;27;20047;-43
2024/01/22 04:46:25;;;;;;;98.40;47.25;;;;;;;-3.52;100.00;102005.28;5134067;27;20119;-44
2024/01/22 04:48:56;;;;;;;103.85;47.60;;;;;;;-3.69;100.00;102012.69;5134133;27;20043;-45
2024/01/22 04:51:24;;;;;;;98.68;46.50;;;;;;;-3.62;100.00;102014.63;5133831;27;20047;-46
2024/01/22 04:53:54;;;;;;;96.68;46.33;;;;;;;-3.58;100.00;102019.06;5133305;27;20404;-43
2024/01/22 04:56:24;;;;;;;100.60;47.47;;;;;;;-3.55;100.00;102021.75;5133062;27;20051;-44
2024/01/22 04:58:52;;;;;;;104.72;47.40;;;;;;;-3.28;100.00;102028.50;5133470;27;20101;-46
2024/01/22 05:01:21;;;;;;;98.80;47.33;;;;;;;-3.34;100.00;102030.97;5133568;27;20166;-45
2024/01/22 05:03:49;;;;;;;97.75;45.70;;;;;;;-3.29;100.00;102031.94;5133756;27;20047;-45
2024/01/22 05:06:17;;;;;;;97.28;47.30;;;;;;;-3.47;100.00;102022.84;5133424;27;20057;-47
2024/01/22 05:08:46;;;;;;;95.63;45.58;;;;;;;-3.50;100.00;102022.75;5133342;27;20058;-45
2024/01/22 05:11:14;;;;;;;100.28;47.00;;;;;;;-3.35;100.00;102022.25;5133457;27;20144;-45
2024/01/22 05:13:52;;;;;;;99.65;46.65;;;;;;;-3.36;100.00;102023.09;5133452;27;20074;-45
2024/01/22 05:16:24;;;;;;;98.35;45.83;;;;;;;-3.39;100.00;102016.91;5133352;27;20078;-45
2024/01/22 05:18:53;;;;;;;105.88;49.70;;;;;;;-3.67;100.00;102016.22;5133417;27;20059;-46
2024/01/22 05:21:22;;;;;;;111.43;50.88;;;;;;;-3.74;100.00;102001.25;5133465;27;20566;-44
2024/01/22 05:23:51;;;;;;;102.60;49.58;;;;;;;-3.69;100.00;101994.44;5133800;27;20066;-44
2024/01/22 05:26:20;;;;;;;115.47;53.67;;;;;;;-3.65;100.00;101993.69;5133813;27;20473;-45
2024/01/22 05:28:53;;;;;;;135.13;58.35;;;;;;;-3.78;100.00;101997.69;5115309;27;20039;-43
2024/01/22 05:31:21;;;;;;;124.78;53.55;;;;;;;-3.72;100.00;101986.53;5133216;27;20073;-45
2024/01/22 05:33:50;;;;;;;127.13;54.38;;;;;;;-3.54;100.00;101988.72;5132981;27;20043;-45
2024/01/22 05:36:18;;;;;;;105.05;48.95;;;;;;;-3.48;100.00;101987.13;5132803;27;20519;-45
2024/01/22 05:38:47;;;;;;;96.45;46.65;;;;;;;-3.33;100.00;101989.25;5132891;27;20051;-46
2024/01/22 05:41:16;;;;;;;99.30;48.70;;;;;;;-3.30;100.00;101978.00;5132872;27;20487;-45
2024/01/22 05:43:46;;;;;;;97.90;45.25;;;;;;;-3.51;100.00;101983.56;5132596;27;20054;-45
2024/01/22 05:46:16;;;;;;;97.57;45.75;;;;;;;-3.60;100.00;101986.84;5132693;27;20130;-45
2024/01/22 05:48:47;;;;;;;97.43;46.33;;;;;;;-3.69;100.00;101983.13;5132905;27;20422;-46
2024/01/22 05:51:15;;;;;;;87.45;43.60;;;;;;;-3.56;100.00;101980.88;5133090;27;20051;-45
2024/01/22 05:53:44;;;;;;;91.15;45.35;;;;;;;-3.49;100.00;101976.66;5132335;27;20088;-44
2024/01/22 05:56:21;;;;;;;85.70;44.90;;;;;;;-3.62;100.00;101982.44;5132536;27;20522;-46
2024/01/22 05:58:53;;;;;;;91.18;44.03;;;;;;;-3.65;100.00;101980.63;5132363;27;20149;-48
2024/01/22 06:01:28;;;;;;;90.45;43.83;;;;;;;-3.68;100.00;101979.66;5132485;27;20043;-46
2024/01/22 06:03:57;;;;;;;96.20;45.00;;;;;;;-3.65;100.00;101980.63;5132510;27;20130;-44
2024/01/22 06:06:26;;;;;;;94.97;45.67;;;;;;;-3.65;100.00;101978.03;5132853;27;20134;-46
2024/01/22 06:08:54;;;;;;;102.10;47.05;;;;;;;-3.64;100.00;101977.19;5132385;27;20090;-44
2024/01/22 06:11:22;;;;;;;96.00;45.83;;;;;;;-3.67;100.00;101986.63;5132545;27;20051;-44
2024/01/22 06:13:50;;;;;;;105.38;48.40;;;;;;;-3.76;100.00;101982.09;5132783;28;20043;-46
2024/01/22 06:16:33;;;;;;;103.28;47.53;;;;;;;-3.77;100.00;101980.31;5133314;27;20049;-45
2024/01/22 06:19:03;;;;;;;104.85;47.05;;;;;;;-3.70;100.00;101976.13;5133596;27;20063;-45
2024/01/22 06:21:32;;;;;;;102.78;46.92;;;;;;;-3.56;100.00;101969.56;5133028;28;20066;-46
2024/01/22 06:24:00;;;;;;;96.20;46.50;;;;;;;-3.78;100.00;101968.13;5131249;27;20178;-45
2024/01/22 06:26:30;;;;;;;94.80;44.22;;;;;;;-3.67;100.00;101977.09;5133570;27;20047;-45
2024/01/22 06:29:01;;;;;;;92.00;45.58;;;;;;;-3.47;100.00;101980.22;5135364;27;20059;-45
2024/01/22 06:31:29;;;;;;;94.82;45.42;;;;;;;-3.27;100.00;101972.88;5136649;27;20069;-44
2024/01/22 06:33:59;;;;;;;98.18;46.53;;;;;;;-3.33;100.00;101988.38;5136707;27;20051;-46
2024/01/22 06:36:29;;;;;;;98.68;46.13;;;;;;;-3.13;100.00;101983.63;5135305;27;20043;-44
2024/01/22 06:38:58;;;;;;;89.57;43.78;;;;;;;-3.11;100.00;101976.69;5136974;27;20047;-45
2024/01/22 06:41:29;;;;;;;96.90;43.72;;;;;;;-3.00;100.00;101986.53;5136897;27;20510;-43
2024/01/22 06:43:59;;;;;;;90.20;44.65;;;;;;;-3.09;100.00;101994.16;5136520;27;20043;-45
2024/01/22 06:46:27;;;;;;;91.25;43.78;;;;;;;-3.37;100.00;102004.81;5136764;27;20088;-44
2024/01/22 06:48:55;;;;;;;104.15;48.78;;;;;;;-4.14;100.00;102008.03;5136435;27;20149;-45
2024/01/22 06:51:25;;;;;;;94.18;44.72;;;;;;;-4.30;100.00;102011.03;5136929;27;20043;-45
2024/01/22 06:54:05;;;;;;;96.97;47.17;;;;;;;-4.11;100.00;102013.31;5136633;27;20450;-44
2024/01/22 06:56:33;;;;;;;94.00;46.10;;;;;;;-3.92;100.00;102006.00;5136505;27;20051;-45
2024/01/22 06:59:01;;;;;;;96.28;48.22;;;;;;;-3.93;100.00;102004.22;5133327;27;20083;-46
2024/01/22 07:01:32;;;;;;;97.28;45.47;;;;;;;-3.84;100.00;102012.31;5136117;27;20484;-49
2024/01/22 07:04:01;;;;;;;92.25;44.10;;;;;;;-3.80;100.00;102015.00;5136251;27;20054;-44
2024/01/22 07:06:33;;;;;;;87.93;43.00;;;;;;;-3.87;100.00;102018.28;5136976;27;20131;-46
2024/01/22 07:09:02;;;;;;;88.72;41.83;;;;;;;-3.94;100.00;102020.72;5136488;27;20050;-46
2024/01/22 07:11:31;;;;;;;85.20;41.38;;;;;;;-3.96;100.00;102019.78;5136717;27;20040;-45
2024/01/22 07:14:00;;;;;;;87.07;43.10;;;;;;;-3.72;100.00;102030.88;5136423;27;20047;-45
2024/01/22 07:16:29;;;;;;;87.65;41.88;;;;;;;-3.61;100.00;102028.53;5135966;27;20046;-44
2024/01/22 07:18:57;;;;;;;89.35;41.63;;;;;;;-3.59;100.00;102019.91;5134562;27;20047;-46
2024/01/22 07:21:25;;;;;;;86.80;40.28;;;;;;;-3.35;100.00;102024.00;5135509;27;20063;-43
2024/01/22 07:23:55;;;;;;;78.88;38.33;;;;;;;-3.34;100.00;102023.13;5135545;27;20093;-44
2024/01/22 07:26:26;;;;;;;73.15;35.55;;;;;;;-3.22;100.00;102033.88;5135468;27;20047;-42
2024/01/22 07:28:57;;;;;;;65.18;32.80;;;;;;;-3.26;100.00;102029.44;5135382;27;20051;-44
2024/01/22 07:31:26;;;;;;;71.55;33.72;;;;;;;-3.24;100.00;102026.00;5135315;27;20126;-44
2024/01/22 07:33:55;;;;;;;70.45;34.90;;;;;;;-3.47;100.00;102033.28;5135492;27;20146;-44
2024/01/22 07:36:23;;;;;;;68.47;33.35;;;;;;;-3.19;100.00;102029.59;5135159;27;20054;-45
2024/01/22 07:38:54;;;;;;;67.45;33.00;;;;;;;-3.39;100.00;102035.19;5135097;27;20070;-44
2024/01/22 07:41:24;;;;;;;66.53;32.03;;;;;;;-3.26;100.00;102032.03;5135155;27;20504;-43
2024/01/22 07:43:52;;;;;;;65.10;32.30;;;;;;;-2.90;100.00;102040.72;5135076;27;20061;-42
2024/01/22 07:46:23;;;;;;;69.05;33.03;;;;;;;-3.08;100.00;102042.06;5134695;27;20040;-42
2024/01/22 07:48:52;;;;;;;65.22;32.63;;;;;;;-2.97;100.00;102038.84;5135051;27;20079;-44
2024/01/22 07:51:29;;;;;;;70.03;34.50;;;;;;;-2.75;100.00;102041.94;5135011;27;20051;-45
2024/01/22 07:53:58;;;;;;;78.20;38.17;;;;;;;-2.81;100.00;102036.56;5134804;27;20043;-46
2024/01/22 07:56:31;;;;;;;75.95;37.47;;;;;;;-2.76;100.00;102032.34;5135220;27;20156;-43
2024/01/22 07:58:59;;;;;;;72.90;36.47;;;;;;;-2.82;100.00;102038.28;5133671;27;20044;-44
2024/01/22 08:01:27;;;;;;;74.50;35.80;;;;;;;-2.62;100.00;102023.06;5133374;27;20146;-45
2024/01/22 08:03:56;;;;;;;76.82;35.90;;;;;;;-2.66;100.00;102034.31;5135029;27;20050;-45
2024/01/22 08:06:27;;;;;;;76.03;34.35;;;;;;;-2.73;100.00;102029.78;5134572;27;20051;-44
2024/01/22 08:08:56;;;;;;;71.32;33.85;;;;;;;-2.58;100.00;102019.69;5134062;27;20051;-46
2024/01/22 08:11:24;;;;;;;65.28;33.40;;;;;;;-2.55;100.00;102017.13;5135026;27;20138;-45
2024/01/22 08:13:54;;;;;;;70.78;34.97;;;;;;;-2.53;100.00;102015.44;5134706;27;20049;-44
2024/01/22 08:16:22;;;;;;;69.05;34.60;;;;;;;-2.55;100.00;102024.97;5133965;27;20130;-44
2024/01/22 08:18:51;;;;;;;70.65;34.95;;;;;;;-2.47;100.00;102023.41;5133361;27;20047;-44
2024/01/22 08:21:22;;;;;;;69.15;33.60;;;;;;;-2.53;100.00;102025.88;5134236;27;20047;-45
2024/01/22 08:23:50;;;;;;;61.08;31.95;;;;;;;-2.50;100.00;102012.03;5133866;27;20043;-44
2024/01/22 08:26:19;;;;;;;65.72;33.17;;;;;;;-2.32;100.00;102013.28;5133949;27;20047;-44
2024/01/22 08:28:47;;;;;;;65.65;32.45;;;;;;;-2.18;100.00;102015.28;5133526;27;20050;-45
2024/01/22 08:31:17;;;;;;;66.13;31.63;;;;;;;-2.12;100.00;102018.91;5133835;27;20039;-44
2024/01/22 08:33:45;;;;;;;56.15;30.00;;;;;;;-2.17;100.00;102014.44;5133836;27;20054;-47
2024/01/22 08:36:14;;;;;;;63.03;32.95;;;;;;;-2.19;100.00;102019.63;5133824;27;20043;-45
2024/01/22 08:38:43;;;;;;;63.88;32.60;;;;;;;-2.37;100.00;102020.13;5133839;27;20050;-45
2024/01/22 08:41:14;;;;;;;65.47;33.60;;;;;;;-2.52;100.00;102019.81;5134516;27;20073;-44
2024/01/22 08:43:43;;;;;;;61.20;32.00;;;;;;;-2.19;100.00;102030.09;5133855;27;20054;-44
2024/01/22 08:46:11;;;;;;;72.50;34.40;;;;;;;-1.96;100.00;102022.69;5133762;27;20040;-45
2024/01/22 08:48:40;;;;;;;63.28;33.42;;;;;;;-1.86;100.00;102014.16;5133770;27;20067;-45
2024/01/22 08:51:11;;;;;;;68.70;32.85;;;;;;;-1.88;100.00;102021.09;5133261;27;20126;-45
2024/01/22 08:53:40;;;;;;;67.32;33.33;;;;;;;-2.07;100.00;102024.22;5134005;27;20100;-46
2024/01/22 08:56:09;;;;;;;60.88;32.70;;;;;;;-1.89;100.00;102015.84;5133845;27;20112;-46
2024/01/22 08:58:38;;;;;;;63.65;34.03;;;;;;;-2.11;100.00;102023.28;5133295;27;20130;-44
2024/01/22 09:01:06;;;;;;;66.97;34.28;;;;;;;-1.85;100.00;102012.41;5133582;27;20039;-43
2024/01/22 09:03:36;;;;;;;68.03;34.28;;;;;;;-1.91;100.00;102002.75;5133402;27;20423;-45
2024/01/22 09:06:07;;;;;;;63.72;34.05;;;;;;;-2.13;100.00;102006.66;5132827;27;20380;-44
2024/01/22 09:08:36;;;;;;;68.35;35.70;;;;;;;-2.14;100.00;102001.41;5134428;27;20147;-45
2024/01/22 09:11:04;;;;;;;69.03;35.78;;;;;;;-1.89;100.00;101993.19;5134517;27;20039;-43
2024/01/22 09:13:33;;;;;;;64.28;34.03;;;;;;;-1.66;100.00;101990.09;5134363;27;20133;-45
2024/01/22 09:16:01;;;;;;;70.20;35.00;;;;;;;-1.86;100.00;101998.47;5133595;27;20142;-44
2024/01/22 09:18:32;;;;;;;71.68;34.95;;;;;;;-1.96;100.00;101993.91;5133621;27;20053;-47
2024/01/22 09:21:01;;;;;;;67.72;34.92;;;;;;;-1.85;100.00;101987.16;5133560;27;20043;-46
2024/01/22 09:23:32;;;;;;;67.65;35.78;;;;;;;-1.62;100.00;101987.56;5134063;27;20078;-45
2024/01/22 09:26:02;;;;;;;74.72;36.00;;;;;;;-1.42;100.00;101984.41;5133658;27;20124;-45
2024/01/22 09:28:32;;;;;;;72.70;36.30;;;;;;;-1.39;100.00;101968.75;5133434;27;20051;-46
2024/01/22 09:31:01;;;;;;;71.25;35.65;;;;;;;-1.32;100.00;101968.88;5134409;27;20051;-45
2024/01/22 09:33:29;;;;;;;68.68;36.03;;;;;;;-1.38;100.00;101962.66;5133119;27;20072;-44
2024/01/22 09:36:00;;;;;;;68.82;35.08;;;;;;;-1.03;100.00;101952.72;5132834;27;20071;-49
2024/01/22 09:38:32;;;;;;;;;;;;;;;-0.75;100.00;101953.97;5132973;27;20135;-47
2024/01/22 09:41:01;;;;;;;69.82;32.20;;;;;;;-0.57;100.00;101953.34;5132913;27;20021;-45
2024/01/22 09:43:29;;;;;;;69.78;35.90;;;;;;;-1.10;100.00;101950.84;5133073;27;20047;-43
2024/01/22 09:45:59;;;;;;;63.15;34.22;;;;;;;-0.87;100.00;101944.19;5133087;27;20499;-44
2024/01/22 09:48:29;;;;;;;63.80;33.15;;;;;;;-0.72;100.00;101931.31;5133518;27;20051;-44
2024/01/22 09:50:58;;;;;;;67.30;34.22;;;;;;;-0.67;100.00;101929.63;5133689;27;20163;-45
2024/01/22 09:53:30;;;;;;;66.05;32.95;;;;;;;-0.81;100.00;101918.09;5133237;27;20126;-46
2024/01/22 09:56:01;;;;;;;66.88;33.83;;;;;;;-0.78;100.00;101918.09;5132797;27;20492;-45
2024/01/22 09:58:35;;;;;;;60.22;33.20;;;;;;;-0.71;100.00;101904.22;5132527;27;20556;-43
2024/01/22 10:01:04;;;;;;;60.85;32.33;;;;;;;-0.61;100.00;101894.75;5131953;27;20043;-45
2024/01/22 10:03:33;;;;;;;67.70;31.80;;;;;;;-0.65;100.00;101885.09;5127627;27;20051;-44
2024/01/22 10:06:05;;;;;;;61.90;31.15;;;;;;;-0.56;100.00;101893.06;5130775;27;20051;-44
2024/01/22 10:08:34;;;;;;;62.40;30.95;;;;;;;-0.32;100.00;101879.31;5126329;27;20055;-45
2024/01/22 10:11:05;;;;;;;65.25;30.95;;;;;;;-0.16;100.00;101876.00;5132349;27;20051;-44
2024/01/22 10:13:50;;;;;;;61.55;30.38;;;;;;;-0.15;100.00;101880.38;5131834;27;20125;-45
2024/01/22 10:16:18;;;;;;;59.08;29.33;;;;;;;-0.08;100.00;101874.34;5131456;28;20445;-45
2024/01/22 10:18:58;;;;;;;54.97;29.23;;;;;;;0.10;100.00;101864.88;5131798;28;20047;-44
2024/01/22 10:21:28;;;;;;;55.55;29.77;;;;;;;0.21;100.00;101863.22;5131558;28;20396;-47
2024/01/22 10:24:00;;;;;;;54.83;27.80;;;;;;;0.27;100.00;101865.88;5132292;27;20074;-45
2024/01/22 10:26:31;;;;;;;52.05;27.98;;;;;;;0.42;100.00;101858.13;5130987;28;20109;-46
2024/01/22 10:29:14;;;;;;;52.28;28.50;;;;;;;0.42;100.00;101852.88;5131314;27;20063;-46
2024/01/22 10:31:54;;;;;;;54.78;29.25;;;;;;;0.52;100.00;101861.69;5131598;28;20442;-47
2024/01/22 10:34:22;;;;;;;57.15;29.27;;;;;;;0.61;100.00;101851.22;5131635;28;20059;-46
2024/01/22 10:37:07;;;;;;;57.17;28.40;;;;;;;0.81;100.00;101846.09;5130925;28;20523;-46
2024/01/22 10:39:37;;;;;;;54.85;27.65;;;;;;;0.69;100.00;101848.66;5130581;28;20055;-46
2024/01/22 10:42:11;;;;;;;55.88;29.80;;;;;;;0.33;100.00;101833.53;5131408;28;20415;-48
2024/01/22 10:44:45;;;;;;;54.97;29.08;;;;;;;-0.01;100.00;101825.41;5132312;28;20069;-48
2024/01/22 10:47:15;;;;;;;54.65;28.27;;;;;;;0.18;100.00;101813.31;5130844;28;20058;-47
2024/01/22 10:49:45;;;;;;;54.47;28.83;;;;;;;0.45;100.00;101800.38;5131914;28;20050;-45
2024/01/22 10:52:18;;;;;;;50.38;29.05;;;;;;;0.67;100.00;101792.59;5132444;28;20441;-46
2024/01/22 10:54:49;;;;;;;60.22;30.75;;;;;;;0.39;100.00;101784.59;5132412;28;20051;-46
2024/01/22 10:57:30;;;;;;;56.50;29.13;;;;;;;0.55;100.00;101781.16;5129433;28;20043;-47
2024/01/22 11:00:06;;;;;;;56.38;29.42;;;;;;;0.38;100.00;101776.69;5132448;28;20055;-46
2024/01/22 11:02:41;;;;;;;55.00;29.60;;;;;;;0.49;100.00;101775.91;5132124;27;20695;-45
2024/01/22 11:05:14;;;;;;;58.97;29.55;;;;;;;0.38;100.00;101782.81;5132837;27;20078;-47
2024/01/22 11:07:49;;;;;;;57.75;31.20;;;;;;;0.46;100.00;101780.25;5130970;27;20067;-45
2024/01/22 11:10:22;;;;;;;;;;;;;;;0.53;100.00;101782.91;5132048;28;20047;-47
2024/01/22 11:12:54;;;;;;;63.83;29.93;;;;;;;0.72;100.00;101772.50;5132405;27;19942;-47
2024/01/22 11:15:23;;;;;;;59.25;28.38;;;;;;;0.81;100.00;101762.91;5135531;27;20051;-45